Time;durP1;ratioP1;P1;durP2;ratioP2;P2;SDS_P1;SDS_P2;PMS_P1;PMS_P2;Temp;Humidity;BMP_temperature;BMP_pressure;BME280_temperature;BME280_humidity;BME280_pressure;Samples;Min_cycle;Max_cycle;Signal;HPM_P1;HPM_P2
2023/10/24 00:01:07;;;;;;;;;;;17.00;59.80;;;;;;10204524;28;94979;-53
2023/10/24 00:06:09;;;;;;;;;;;17.10;59.60;;;;;;10188016;28;94433;-51
2023/10/24 00:11:11;;;;;;;;;;;17.10;59.50;;;;;;10171749;28;93469;-51
2023/10/24 00:16:13;;;;;;;;;;;17.00;59.20;;;;;;10197099;28;94597;-48
2023/10/24 00:21:15;;;;;;;;;;;17.00;59.60;;;;;;10192550;28;93051;-50
2023/10/24 00:26:17;;;;;;;;;;;17.00;59.90;;;;;;10209258;28;93819;-50
2023/10/24 00:31:19;;;;;;;;;;;17.00;60.30;;;;;;10221892;28;94539;-47
2023/10/24 00:36:21;;;;;;;;;;;17.00;60.00;;;;;;10190938;28;96950;-47
2023/10/24 00:41:22;;;;;;;;;;;17.00;59.80;;;;;;10213429;28;94531;-47
2023/10/24 00:46:24;;;;;;;;;;;17.00;59.60;;;;;;10205069;28;93569;-50
2023/10/24 00:51:26;;;;;;;;;;;17.00;59.40;;;;;;10200724;28;94894;-49
2023/10/24 00:56:29;;;;;;;;;;;17.00;59.20;;;;;;10194651;28;94414;-50
2023/10/24 01:06:51;;;;;;;;;;;17.00;58.80;;;;;;9355335;23;94434;-50
2023/10/24 01:11:53;;;;;;;;;;;17.00;58.60;;;;;;10237083;28;94570;-53
2023/10/24 01:16:54;;;;;;;;;;;17.00;59.30;;;;;;10210004;28;94087;-53
2023/10/24 01:21:56;;;;;;;;;;;17.00;59.50;;;;;;10235233;28;93429;-53
2023/10/24 01:26:58;;;;;;;;;;;16.90;59.70;;;;;;10231811;28;95850;-48
2023/10/24 01:32:00;;;;;;;;;;;17.00;59.50;;;;;;10237991;28;94722;-47
2023/10/24 01:37:02;;;;;;;;;;;17.00;59.30;;;;;;10237095;28;93637;-51
2023/10/24 01:42:04;;;;;;;;;;;17.00;59.00;;;;;;10228959;28;94555;-52
2023/10/24 01:47:06;;;;;;;;;;;17.00;58.70;;;;;;10228863;28;94423;-54
2023/10/24 01:52:07;;;;;;;;;;;17.00;58.60;;;;;;10207822;28;93568;-52
2023/10/24 01:57:09;;;;;;;;;;;17.10;58.50;;;;;;10212487;28;94186;-52
2023/10/24 02:02:11;;;;;;;;;;;17.10;58.20;;;;;;10229732;28;92703;-52
2023/10/24 02:07:13;;;;;;;;;;;17.10;58.10;;;;;;10231368;28;94686;-51
2023/10/24 02:12:15;;;;;;;;;;;17.10;58.50;;;;;;10233547;28;94462;-48
2023/10/24 02:17:16;;;;;;;;;;;17.10;59.00;;;;;;10226696;28;96671;-48
2023/10/24 02:22:18;;;;;;;;;;;17.00;59.20;;;;;;10237971;28;93871;-48
2023/10/24 02:27:20;;;;;;;;;;;17.00;58.90;;;;;;10225790;28;93472;-52
2023/10/24 02:32:22;;;;;;;;;;;17.10;58.70;;;;;;10206683;28;94987;-49
2023/10/24 02:37:24;;;;;;;;;;;17.10;58.50;;;;;;10227223;28;95271;-51
2023/10/24 02:42:26;;;;;;;;;;;17.10;58.30;;;;;;10230373;28;94410;-49
2023/10/24 02:47:28;;;;;;;;;;;17.10;58.10;;;;;;10228623;28;93495;-53
2023/10/24 02:52:30;;;;;;;;;;;17.10;58.00;;;;;;10239696;28;93674;-49
2023/10/24 02:57:32;;;;;;;;;;;17.10;57.80;;;;;;10220241;28;93221;-50
2023/10/24 03:02:34;;;;;;;;;;;17.10;57.80;;;;;;10226775;28;94417;-51
2023/10/24 03:07:35;;;;;;;;;;;17.00;58.10;;;;;;10228029;28;95523;-52
2023/10/24 03:12:37;;;;;;;;;;;17.00;58.80;;;;;;10240256;28;93681;-53
2023/10/24 03:17:39;;;;;;;;;;;17.00;58.90;;;;;;10245624;28;93550;-53
2023/10/24 03:22:41;;;;;;;;;;;17.00;58.60;;;;;;10241700;28;94989;-51
2023/10/24 03:27:43;;;;;;;;;;;17.00;58.40;;;;;;10222277;28;94571;-49
2023/10/24 03:32:45;;;;;;;;;;;17.00;58.20;;;;;;10253401;28;94527;-52
2023/10/24 03:37:47;;;;;;;;;;;17.00;58.00;;;;;;10242340;28;93547;-54
2023/10/24 03:42:49;;;;;;;;;;;17.00;57.80;;;;;;10220779;28;93675;-52
2023/10/24 03:47:52;;;;;;;;;;;17.00;57.70;;;;;;10239382;28;93085;-53
2023/10/24 03:52:54;;;;;;;;;;;17.00;57.60;;;;;;10244730;28;93549;-52
2023/10/24 03:57:56;;;;;;;;;;;17.00;57.50;;;;;;10230897;28;96151;-49
2023/10/24 04:02:58;;;;;;;;;;;17.00;58.00;;;;;;10254727;28;93488;-52
2023/10/24 04:08:01;;;;;;;;;;;16.90;58.50;;;;;;10232910;28;94636;-51
2023/10/24 04:13:03;;;;;;;;;;;16.90;58.60;;;;;;10241622;28;94439;-49
2023/10/24 04:18:05;;;;;;;;;;;16.90;58.40;;;;;;10233883;28;94426;-52
2023/10/24 04:23:11;;;;;;;;;;;17.00;58.20;;;;;;10236162;28;94851;-52
2023/10/24 04:28:13;;;;;;;;;;;17.00;58.00;;;;;;10196534;28;93437;-52
2023/10/24 04:33:15;;;;;;;;;;;16.90;57.80;;;;;;10237911;28;92886;-47
2023/10/24 04:38:17;;;;;;;;;;;16.90;57.60;;;;;;10238051;28;94116;-51
2023/10/24 04:43:19;;;;;;;;;;;17.00;57.50;;;;;;10235009;28;94461;-48
2023/10/24 04:48:21;;;;;;;;;;;16.90;57.30;;;;;;10236250;28;96861;-50
2023/10/24 04:53:22;;;;;;;;;;;16.90;57.50;;;;;;10237743;28;94471;-51
2023/10/24 04:58:24;;;;;;;;;;;16.90;58.10;;;;;;10221023;28;94766;-51
2023/10/24 05:03:26;;;;;;;;;;;16.90;58.50;;;;;;10231695;28;93706;-52
2023/10/24 05:08:28;;;;;;;;;;;16.90;58.50;;;;;;10233320;28;93439;-53
2023/10/24 05:13:30;;;;;;;;;;;16.90;58.20;;;;;;10236243;28;94581;-51
2023/10/24 05:18:32;;;;;;;;;;;16.90;58.20;;;;;;10240739;28;96142;-52
2023/10/24 05:23:34;;;;;;;;;;;16.90;58.00;;;;;;10228469;28;92693;-50
2023/10/24 05:28:36;;;;;;;;;;;16.90;57.80;;;;;;10232319;28;92969;-48
2023/10/24 05:33:38;;;;;;;;;;;17.00;57.80;;;;;;10250505;28;94666;-50
2023/10/24 05:38:40;;;;;;;;;;;17.00;59.20;;;;;;10233833;28;97141;-50
2023/10/24 05:43:42;;;;;;;;;;;17.00;60.70;;;;;;10219152;28;94456;-52
2023/10/24 05:48:44;;;;;;;;;;;17.00;60.90;;;;;;10237897;28;94477;-51
2023/10/24 05:53:46;;;;;;;;;;;17.10;61.50;;;;;;10230980;28;94569;-54
2023/10/24 05:58:48;;;;;;;;;;;17.20;62.00;;;;;;10238213;28;94674;-57
2023/10/24 06:03:50;;;;;;;;;;;17.20;61.60;;;;;;10214173;28;94648;-55
2023/10/24 06:08:52;;;;;;;;;;;17.10;61.90;;;;;;10240047;28;94238;-56
2023/10/24 06:13:53;;;;;;;;;;;17.20;64.10;;;;;;10228645;28;93827;-55
2023/10/24 06:18:55;;;;;;;;;;;17.20;65.10;;;;;;10239850;28;94607;-60
2023/10/24 06:23:57;;;;;;;;;;;17.20;64.80;;;;;;10233674;28;94228;-57
2023/10/24 06:28:59;;;;;;;;;;;17.20;64.30;;;;;;10200759;28;96862;-55
2023/10/24 06:34:03;;;;;;;;;;;17.20;64.20;;;;;;10227371;28;94563;-58
2023/10/24 06:39:05;;;;;;;;;;;17.20;64.20;;;;;;10225324;28;93241;-55
2023/10/24 06:44:06;;;;;;;;;;;17.20;64.50;;;;;;10230391;28;93461;-49
2023/10/24 06:49:08;;;;;;;;;;;17.20;64.80;;;;;;10222169;28;93471;-50
2023/10/24 06:54:10;;;;;;;;;;;17.20;65.30;;;;;;10240260;28;94440;-51
2023/10/24 06:59:12;;;;;;;;;;;17.20;67.60;;;;;;10226471;28;93544;-51
2023/10/24 07:04:13;;;;;;;;;;;17.20;68.00;;;;;;10235540;28;92743;-49
2023/10/24 07:09:15;;;;;;;;;;;17.20;67.60;;;;;;10239147;28;93425;-49
2023/10/24 07:14:17;;;;;;;;;;;17.20;67.80;;;;;;10243367;28;94383;-52
2023/10/24 07:19:19;;;;;;;;;;;17.10;67.50;;;;;;10241079;28;97635;-53
2023/10/24 07:24:21;;;;;;;;;;;17.10;68.10;;;;;;10232900;28;94431;-52
2023/10/24 07:29:26;;;;;;;;;;;17.10;68.00;;;;;;10223405;28;93448;-53
2023/10/24 07:34:31;;;;;;;;;;;17.10;67.80;;;;;;10240793;28;94454;-53
2023/10/24 07:39:32;;;;;;;;;;;17.00;67.70;;;;;;10215683;28;93673;-51
2023/10/24 07:44:34;;;;;;;;;;;17.00;67.50;;;;;;10239808;28;94891;-51
2023/10/24 07:49:36;;;;;;;;;;;17.00;67.40;;;;;;10240693;28;94101;-52
2023/10/24 07:54:38;;;;;;;;;;;17.00;67.30;;;;;;10244417;28;93852;-53
2023/10/24 07:59:39;;;;;;;;;;;17.00;67.00;;;;;;10238522;28;93469;-51
2023/10/24 08:04:41;;;;;;;;;;;17.00;67.00;;;;;;10239744;28;97216;-54
2023/10/24 08:09:43;;;;;;;;;;;16.90;66.70;;;;;;10218423;28;96299;-52
2023/10/24 08:14:45;;;;;;;;;;;16.90;66.60;;;;;;10231083;28;93491;-52
2023/10/24 08:19:47;;;;;;;;;;;16.90;66.50;;;;;;10242124;28;93436;-53
2023/10/24 08:24:48;;;;;;;;;;;16.90;66.30;;;;;;10236912;28;93442;-51
2023/10/24 08:29:50;;;;;;;;;;;16.90;66.30;;;;;;10224118;28;94349;-52
2023/10/24 08:34:52;;;;;;;;;;;16.90;66.30;;;;;;10242330;28;94567;-52
2023/10/24 08:39:54;;;;;;;;;;;16.90;66.20;;;;;;10240364;28;94641;-50
2023/10/24 08:44:57;;;;;;;;;;;16.90;66.10;;;;;;10228951;28;94160;-52
2023/10/24 08:49:59;;;;;;;;;;;16.90;66.10;;;;;;10241883;28;94682;-51
2023/10/24 08:55:06;;;;;;;;;;;16.90;66.00;;;;;;10235444;28;94454;-53
2023/10/24 09:00:08;;;;;;;;;;;16.80;65.90;;;;;;10203005;28;95729;-52
2023/10/24 09:05:13;;;;;;;;;;;16.80;65.70;;;;;;10237100;28;94843;-56
2023/10/24 09:10:15;;;;;;;;;;;16.80;65.80;;;;;;10218026;28;94626;-51
2023/10/24 09:15:17;;;;;;;;;;;16.80;65.70;;;;;;10209376;28;94076;-53
2023/10/24 09:20:19;;;;;;;;;;;16.80;65.80;;;;;;10217597;28;95162;-54
2023/10/24 09:25:21;;;;;;;;;;;16.80;65.80;;;;;;10231500;28;93957;-50
2023/10/24 09:30:23;;;;;;;;;;;16.80;65.80;;;;;;10231342;28;93076;-53
2023/10/24 09:35:27;;;;;;;;;;;16.80;65.60;;;;;;10234227;28;92858;-50
2023/10/24 09:40:33;;;;;;;;;;;16.80;65.70;;;;;;10231728;28;94422;-49
2023/10/24 09:45:35;;;;;;;;;;;16.80;65.70;;;;;;10233530;28;94115;-51
2023/10/24 09:50:39;;;;;;;;;;;16.80;65.70;;;;;;10225899;28;95477;-52
2023/10/24 09:55:45;;;;;;;;;;;16.80;65.60;;;;;;10226529;28;94581;-51
2023/10/24 10:00:47;;;;;;;;;;;16.80;65.60;;;;;;10221617;28;93511;-53
2023/10/24 10:05:50;;;;;;;;;;;16.80;65.50;;;;;;9559367;28;18761700;-53
2023/10/24 10:10:52;;;;;;;;;;;16.90;65.60;;;;;;10236708;28;93123;-53
2023/10/24 10:16:20;;;;;;;;;;;16.90;65.40;;;;;;10238177;28;92984;-53
2023/10/24 10:21:33;;;;;;;;;;;16.90;65.40;;;;;;10188831;28;94046;-52
2023/10/24 10:26:47;;;;;;;;;;;16.90;65.50;;;;;;10238732;28;93876;-53
2023/10/24 10:31:57;;;;;;;;;;;16.90;65.40;;;;;;10237535;28;92996;-53
2023/10/24 10:37:18;;;;;;;;;;;16.90;65.40;;;;;;10230256;28;94970;-52
2023/10/24 10:42:39;;;;;;;;;;;16.90;65.30;;;;;;10235238;28;95876;-49
2023/10/24 10:47:40;;;;;;;;;;;17.00;65.40;;;;;;10237017;28;95890;-52
2023/10/24 10:52:51;;;;;;;;;;;16.90;65.30;;;;;;10236454;28;93150;-52
2023/10/24 10:58:05;;;;;;;;;;;16.90;65.30;;;;;;10231801;28;93732;-53
2023/10/24 11:03:27;;;;;;;;;;;17.00;65.40;;;;;;10235139;28;93822;-52
2023/10/24 11:08:29;;;;;;;;;;;17.00;65.40;;;;;;10213711;28;93880;-53
2023/10/24 11:13:36;;;;;;;;;;;16.90;65.20;;;;;;10229828;28;94303;-50
2023/10/24 11:18:39;;;;;;;;;;;16.90;65.20;;;;;;10238366;28;92733;-55
2023/10/24 11:23:43;;;;;;;;;;;16.90;65.20;;;;;;10236266;28;93067;-52
2023/10/24 11:28:44;;;;;;;;;;;17.00;65.30;;;;;;10219578;28;94180;-52
2023/10/24 11:33:47;;;;;;;;;;;17.00;65.30;;;;;;10241125;28;95885;-51
2023/10/24 11:38:48;;;;;;;;;;;16.90;65.20;;;;;;10244562;28;95759;-53
2023/10/24 11:43:51;;;;;;;;;;;16.90;65.20;;;;;;10242325;28;93596;-53
2023/10/24 11:48:53;;;;;;;;;;;16.90;65.30;;;;;;10240575;28;93654;-50
2023/10/24 11:54:05;;;;;;;;;;;16.90;65.30;;;;;;10222462;28;93140;-50
2023/10/24 11:59:09;;;;;;;;;;;16.90;65.20;;;;;;10239135;28;93360;-50
2023/10/24 12:04:12;;;;;;;;;;;16.90;65.30;;;;;;10244469;28;95524;-51
2023/10/24 12:09:14;;;;;;;;;;;16.90;65.30;;;;;;10243552;28;93808;-49
2023/10/24 12:14:17;;;;;;;;;;;16.90;65.40;;;;;;10232661;28;93416;-51
2023/10/24 12:19:19;;;;;;;;;;;16.90;65.40;;;;;;10241819;28;94569;-48
2023/10/24 12:24:21;;;;;;;;;;;16.90;65.40;;;;;;10230892;28;96847;-53
2023/10/24 12:29:23;;;;;;;;;;;16.90;65.40;;;;;;10243745;28;96434;-49
2023/10/24 12:34:25;;;;;;;;;;;16.80;65.30;;;;;;10240092;28;94240;-52
2023/10/24 12:39:27;;;;;;;;;;;16.80;65.40;;;;;;10238984;28;93165;-61
2023/10/24 12:44:29;;;;;;;;;;;16.80;65.40;;;;;;10237496;28;93505;-51
2023/10/24 12:49:31;;;;;;;;;;;16.80;65.60;;;;;;10227251;28;94133;-53
2023/10/24 12:54:33;;;;;;;;;;;16.80;65.70;;;;;;10241925;28;93192;-51
2023/10/24 12:59:34;;;;;;;;;;;16.90;66.00;;;;;;10233066;28;93793;-52
2023/10/24 13:04:36;;;;;;;;;;;16.90;66.00;;;;;;10232355;28;93296;-52
2023/10/24 13:09:39;;;;;;;;;;;16.90;66.10;;;;;;10225273;28;93954;-53
2023/10/24 13:14:42;;;;;;;;;;;16.90;66.20;;;;;;10231322;28;96138;-48
2023/10/24 13:19:43;;;;;;;;;;;16.90;66.20;;;;;;10235110;28;95841;-53
2023/10/24 13:24:45;;;;;;;;;;;16.90;66.30;;;;;;10235791;28;95316;-50
2023/10/24 13:29:47;;;;;;;;;;;16.90;66.40;;;;;;10236544;28;93182;-52
2023/10/24 13:34:49;;;;;;;;;;;16.90;66.40;;;;;;10231748;28;93506;-52
2023/10/24 13:39:54;;;;;;;;;;;16.90;66.50;;;;;;10240099;28;93291;-53
2023/10/24 13:44:56;;;;;;;;;;;16.90;66.50;;;;;;10237690;28;94646;-53
2023/10/24 13:49:58;;;;;;;;;;;16.90;66.50;;;;;;10234920;28;93772;-54
2023/10/24 13:55:00;;;;;;;;;;;16.90;66.60;;;;;;10195938;28;93311;-52
2023/10/24 14:00:03;;;;;;;;;;;16.80;66.50;;;;;;10200707;28;93974;-53
2023/10/24 14:05:05;;;;;;;;;;;16.80;66.50;;;;;;10235100;28;96712;-51
2023/10/24 14:10:07;;;;;;;;;;;16.90;66.60;;;;;;10237873;28;96258;-53
2023/10/24 14:15:09;;;;;;;;;;;16.90;66.70;;;;;;10237414;28;92855;-53
2023/10/24 14:20:12;;;;;;;;;;;16.80;66.60;;;;;;10238652;28;93627;-53
2023/10/24 14:25:14;;;;;;;;;;;16.90;66.70;;;;;;10200924;28;93715;-53
2023/10/24 14:30:16;;;;;;;;;;;16.90;66.70;;;;;;10215201;28;93938;-52
2023/10/24 14:35:18;;;;;;;;;;;16.90;66.60;;;;;;10231167;28;94747;-52
2023/10/24 14:40:19;;;;;;;;;;;16.90;66.60;;;;;;10210507;28;92489;-51
2023/10/24 14:45:21;;;;;;;;;;;16.90;66.70;;;;;;10223887;28;93931;-51
2023/10/24 14:50:23;;;;;;;;;;;16.90;66.70;;;;;;10221013;28;95146;-53
2023/10/24 14:55:25;;;;;;;;;;;16.90;66.50;;;;;;10224053;28;95399;-52
2023/10/24 15:00:28;;;;;;;;;;;16.90;66.60;;;;;;10227518;28;96603;-52
2023/10/24 15:05:30;;;;;;;;;;;17.00;66.70;;;;;;10217673;28;93233;-49
2023/10/24 15:10:32;;;;;;;;;;;16.90;66.60;;;;;;10234316;28;92810;-51
2023/10/24 15:15:35;;;;;;;;;;;17.00;66.50;;;;;;10244965;28;94564;-49
2023/10/24 15:20:37;;;;;;;;;;;16.90;66.50;;;;;;10245543;28;93201;-48
2023/10/24 15:25:39;;;;;;;;;;;16.90;66.50;;;;;;10244155;28;94877;-49
2023/10/24 15:30:41;;;;;;;;;;;16.90;66.40;;;;;;10245675;28;93566;-47
2023/10/24 15:35:50;;;;;;;;;;;16.90;66.40;;;;;;10237359;28;93120;-50
2023/10/24 15:40:53;;;;;;;;;;;16.90;66.30;;;;;;10244363;28;93853;-49
2023/10/24 15:46:12;;;;;;;;;;;16.90;66.40;;;;;;10228371;28;96452;-52
2023/10/24 15:51:15;;;;;;;;;;;16.90;66.30;;;;;;10229674;28;95260;-53
2023/10/24 15:56:17;;;;;;;;;;;16.80;66.20;;;;;;10239463;28;93730;-52
2023/10/24 16:01:21;;;;;;;;;;;16.80;66.20;;;;;;10233035;28;93008;-51
2023/10/24 16:06:23;;;;;;;;;;;16.80;66.20;;;;;;10243099;28;93290;-49
2023/10/24 16:11:24;;;;;;;;;;;16.80;66.10;;;;;;10242514;28;93179;-49
2023/10/24 16:16:26;;;;;;;;;;;16.80;66.20;;;;;;10242965;28;93177;-50
2023/10/24 16:21:30;;;;;;;;;;;16.90;66.30;;;;;;10243458;28;93286;-51
2023/10/24 16:26:32;;;;;;;;;;;17.00;66.20;;;;;;10241150;28;94446;-52
2023/10/24 16:31:34;;;;;;;;;;;17.20;65.90;;;;;;10239338;28;93342;-50
2023/10/24 16:36:36;;;;;;;;;;;17.30;65.60;;;;;;10240727;28;95305;-52
2023/10/24 16:41:38;;;;;;;;;;;17.40;65.40;;;;;;10239242;28;96168;-51
2023/10/24 16:46:40;;;;;;;;;;;17.40;65.30;;;;;;10210748;28;93081;-52
2023/10/24 16:51:42;;;;;;;;;;;17.40;65.10;;;;;;10232192;28;93205;-53
2023/10/24 16:56:44;;;;;;;;;;;17.40;65.10;;;;;;10239857;28;93125;-50
2023/10/24 17:01:46;;;;;;;;;;;17.40;65.10;;;;;;10234196;28;92897;-51
2023/10/24 17:06:51;;;;;;;;;;;17.40;65.20;;;;;;10251603;28;93384;-51
2023/10/24 17:11:52;;;;;;;;;;;17.40;65.20;;;;;;10242262;28;92773;-49
2023/10/24 17:16:54;;;;;;;;;;;17.30;65.20;;;;;;10239836;28;93010;-51
2023/10/24 17:21:56;;;;;;;;;;;17.30;65.30;;;;;;10242506;28;94325;-48
2023/10/24 17:26:58;;;;;;;;;;;17.30;65.30;;;;;;10234804;28;95374;-51
2023/10/24 17:32:00;;;;;;;;;;;17.30;65.40;;;;;;10237827;28;95228;-51
2023/10/24 17:37:02;;;;;;;;;;;17.20;65.40;;;;;;10242050;28;94049;-52
2023/10/24 17:42:05;;;;;;;;;;;17.20;66.40;;;;;;10238455;28;93972;-51
2023/10/24 17:47:06;;;;;;;;;;;17.30;65.50;;;;;;10235790;28;93939;-51
2023/10/24 17:52:08;;;;;;;;;;;17.30;65.40;;;;;;10228581;28;93139;-52
2023/10/24 17:57:10;;;;;;;;;;;17.30;65.40;;;;;;10239751;28;93781;-52
2023/10/24 18:02:12;;;;;;;;;;;17.30;65.40;;;;;;10227034;28;93907;-51
2023/10/24 18:07:15;;;;;;;;;;;17.30;65.50;;;;;;10229420;28;93825;-53
2023/10/24 18:12:19;;;;;;;;;;;17.30;65.30;;;;;;10216538;28;93236;-49
2023/10/24 18:17:21;;;;;;;;;;;17.40;65.30;;;;;;10238537;28;95782;-50
2023/10/24 18:22:23;;;;;;;;;;;17.30;65.20;;;;;;10240418;28;96561;-49
2023/10/24 18:27:25;;;;;;;;;;;17.30;65.30;;;;;;10239847;28;93969;-61
2023/10/24 18:32:27;;;;;;;;;;;17.30;65.30;;;;;;10236187;28;94199;-49
2023/10/24 18:37:30;;;;;;;;;;;17.40;65.30;;;;;;10238079;28;93341;-46
2023/10/24 18:42:32;;;;;;;;;;;17.40;65.20;;;;;;10237206;28;93113;-51
2023/10/24 18:47:34;;;;;;;;;;;17.40;65.20;;;;;;10238453;28;94147;-47
2023/10/24 18:52:36;;;;;;;;;;;17.40;65.10;;;;;;10233822;28;92820;-49
2023/10/24 18:57:37;;;;;;;;;;;17.40;65.20;;;;;;10211563;28;92831;-50
2023/10/24 19:02:39;;;;;;;;;;;17.40;65.10;;;;;;10212736;28;93097;-51
2023/10/24 19:07:55;;;;;;;;;;;17.50;65.10;;;;;;10235443;28;95203;-50
2023/10/24 19:12:57;;;;;;;;;;;17.50;64.60;;;;;;10229313;28;96100;-51
2023/10/24 19:17:59;;;;;;;;;;;17.50;64.10;;;;;;10214255;28;93805;-53
2023/10/24 19:23:04;;;;;;;;;;;17.50;63.80;;;;;;10231629;28;93032;-50
2023/10/24 19:28:06;;;;;;;;;;;17.50;63.40;;;;;;10227515;28;93034;-51
2023/10/24 19:33:08;;;;;;;;;;;17.50;63.20;;;;;;10221895;28;93826;-49
2023/10/24 19:38:10;;;;;;;;;;;17.50;63.00;;;;;;10230480;28;93625;-51
2023/10/24 19:43:11;;;;;;;;;;;17.50;62.70;;;;;;10230174;28;94992;-52
2023/10/24 19:48:17;;;;;;;;;;;17.50;62.30;;;;;;10215122;28;93269;-53
2023/10/24 19:53:19;;;;;;;;;;;17.60;62.10;;;;;;10244062;28;94021;-52
2023/10/24 19:58:21;;;;;;;;;;;17.60;61.90;;;;;;10241650;28;94992;-53
2023/10/24 20:03:23;;;;;;;;;;;17.50;61.70;;;;;;10236449;28;96069;-53
2023/10/24 20:08:25;;;;;;;;;;;17.50;61.50;;;;;;10240251;28;93536;-52
2023/10/24 20:13:27;;;;;;;;;;;17.50;61.40;;;;;;10236293;28;93202;-51
2023/10/24 20:18:29;;;;;;;;;;;17.50;61.40;;;;;;10243011;28;93807;-51
2023/10/24 20:23:31;;;;;;;;;;;17.40;62.70;;;;;;10241490;28;93994;-49
2023/10/24 20:28:34;;;;;;;;;;;17.40;62.10;;;;;;10232087;28;93397;-48
2023/10/24 20:33:36;;;;;;;;;;;17.40;62.10;;;;;;10202151;28;92730;-53
2023/10/24 20:38:37;;;;;;;;;;;17.40;61.80;;;;;;10217997;28;94174;-52
2023/10/24 20:43:39;;;;;;;;;;;17.40;61.70;;;;;;10225704;28;93496;-49
2023/10/24 20:48:41;;;;;;;;;;;17.30;61.40;;;;;;10227481;28;95661;-50
2023/10/24 20:53:43;;;;;;;;;;;17.30;61.30;;;;;;10209725;28;95972;-51
2023/10/24 20:58:45;;;;;;;;;;;17.30;61.00;;;;;;10232352;28;93808;-49
2023/10/24 21:03:47;;;;;;;;;;;17.30;60.80;;;;;;10219408;28;93473;-51
2023/10/24 21:08:49;;;;;;;;;;;17.30;60.80;;;;;;10229154;28;93850;-52
2023/10/24 21:13:51;;;;;;;;;;;17.30;60.60;;;;;;10223433;28;93163;-47
2023/10/24 21:18:52;;;;;;;;;;;17.30;60.50;;;;;;10215573;28;94080;-50
2023/10/24 21:23:57;;;;;;;;;;;17.20;60.70;;;;;;10229045;28;93700;-48
2023/10/24 21:28:59;;;;;;;;;;;17.20;61.10;;;;;;10241213;28;93038;-48
2023/10/24 21:34:02;;;;;;;;;;;17.20;61.60;;;;;;10241095;28;93817;-53
2023/10/24 21:39:04;;;;;;;;;;;17.10;62.20;;;;;;10209534;28;95826;-66
2023/10/24 21:44:06;;;;;;;;;;;17.10;60.90;;;;;;10252095;28;94357;-49
2023/10/24 21:49:08;;;;;;;;;;;17.10;60.70;;;;;;10240394;28;93142;-49
2023/10/24 21:54:10;;;;;;;;;;;17.10;60.60;;;;;;10223000;28;93919;-49
2023/10/24 21:59:12;;;;;;;;;;;17.10;60.40;;;;;;10230881;28;93374;-53
2023/10/24 22:04:14;;;;;;;;;;;17.10;60.30;;;;;;10218634;28;93252;-53
2023/10/24 22:09:15;;;;;;;;;;;17.10;60.00;;;;;;10240852;28;93130;-53
2023/10/24 22:14:17;;;;;;;;;;;17.10;60.00;;;;;;10237689;28;93146;-51
2023/10/24 22:19:19;;;;;;;;;;;17.10;60.30;;;;;;10230894;28;93023;-53
2023/10/24 22:24:21;;;;;;;;;;;17.00;60.80;;;;;;10223472;28;94092;-53
2023/10/24 22:29:23;;;;;;;;;;;17.00;60.90;;;;;;10223903;28;95972;-51
2023/10/24 22:34:25;;;;;;;;;;;17.00;60.80;;;;;;10233781;28;95248;-49
2023/10/24 22:39:27;;;;;;;;;;;17.00;60.50;;;;;;10236081;28;93109;-53
2023/10/24 22:44:28;;;;;;;;;;;17.00;60.40;;;;;;10226482;28;93012;-53
2023/10/24 22:49:30;;;;;;;;;;;17.00;60.20;;;;;;10231279;28;94374;-50
2023/10/24 22:54:32;;;;;;;;;;;17.00;60.00;;;;;;10224349;28;93253;-53
2023/10/24 22:59:34;;;;;;;;;;;17.00;59.90;;;;;;10204640;28;93398;-48
2023/10/24 23:04:36;;;;;;;;;;;17.00;59.80;;;;;;10229228;28;93131;-52
2023/10/24 23:09:38;;;;;;;;;;;17.00;59.90;;;;;;10226764;28;93236;-53
2023/10/24 23:14:40;;;;;;;;;;;16.90;60.00;;;;;;10202922;28;93224;-53
2023/10/24 23:19:42;;;;;;;;;;;16.90;60.30;;;;;;10225272;28;96381;-51
2023/10/24 23:24:44;;;;;;;;;;;16.90;60.60;;;;;;10236816;28;96206;-51
2023/10/24 23:29:47;;;;;;;;;;;16.90;60.40;;;;;;10245495;28;94930;-51
2023/10/24 23:34:49;;;;;;;;;;;17.00;60.20;;;;;;10235054;28;93778;-53
2023/10/24 23:39:51;;;;;;;;;;;17.00;60.00;;;;;;10234809;28;93395;-51
2023/10/24 23:44:53;;;;;;;;;;;17.00;59.70;;;;;;10244369;28;93823;-53
2023/10/24 23:49:54;;;;;;;;;;;17.00;59.30;;;;;;10256201;28;93192;-52
2023/10/24 23:54:56;;;;;;;;;;;17.00;59.30;;;;;;10231589;28;93919;-53
2023/10/24 23:59:58;;;;;;;;;;;17.00;59.30;;;;;;10222755;28;93247;-53
